Time;durP1;ratioP1;P1;durP2;ratioP2;P2;SDS_P1;SDS_P2;PMS_P1;PMS_P2;Temp;Humidity;BMP_temperature;BMP_pressure;BME280_temperature;BME280_humidity;BME280_pressure;Samples;Min_cycle;Max_cycle;Signal;HPM_P1;HPM_P2
2022/01/03 00:00:47;;;;;;;11.98;2.42;;;9.40;99.90;;;;;;5054313;28;20041;-68
2022/01/03 00:03:15;;;;;;;14.77;3.15;;;9.50;99.90;;;;;;5057431;28;20071;-68
2022/01/03 00:05:41;;;;;;;7.57;2.00;;;9.50;99.90;;;;;;5056863;28;20041;-68
2022/01/03 00:08:07;;;;;;;13.80;3.30;;;9.40;99.90;;;;;;5057695;28;20509;-68
2022/01/03 00:10:34;;;;;;;13.02;2.70;;;9.50;99.90;;;;;;5054492;28;20148;-67
2022/01/03 00:13:01;;;;;;;10.18;3.03;;;9.50;99.90;;;;;;5054976;28;20507;-68
2022/01/03 00:15:27;;;;;;;11.48;2.33;;;9.60;99.90;;;;;;5038036;28;20040;-68
2022/01/03 00:17:53;;;;;;;16.70;4.00;;;9.60;99.90;;;;;;5038706;28;20041;-68
2022/01/03 00:20:20;;;;;;;10.57;2.53;;;9.70;99.90;;;;;;5056582;28;20383;-68
2022/01/03 00:23:06;;;;;;;8.82;2.67;;;9.60;99.90;;;;;;5056794;28;20075;-67
2022/01/03 00:25:36;;;;;;;19.65;3.60;;;9.50;99.90;;;;;;5018759;28;20053;-68
2022/01/03 00:28:20;;;;;;;12.55;2.83;;;9.40;99.90;;;;;;5035726;28;20045;-67
2022/01/03 00:30:50;;;;;;;17.75;2.92;;;9.60;99.90;;;;;;5018496;28;20585;-68
2022/01/03 00:33:19;;;;;;;12.13;3.53;;;9.50;99.90;;;;;;5034890;28;20052;-67
2022/01/03 00:35:44;;;;;;;12.63;2.10;;;9.50;99.90;;;;;;5035398;28;20060;-67
2022/01/03 00:38:12;;;;;;;10.18;3.03;;;9.50;99.90;;;;;;5034573;28;20037;-65
2022/01/03 00:40:39;;;;;;;17.08;2.83;;;9.50;99.90;;;;;;5035844;28;20048;-66
2022/01/03 00:43:05;;;;;;;23.23;3.20;;;9.60;99.90;;;;;;5034792;28;20491;-66
2022/01/03 00:45:31;;;;;;;24.27;4.13;;;9.30;99.90;;;;;;5035147;28;20403;-65
2022/01/03 00:47:57;;;;;;;12.07;3.53;;;9.50;99.90;;;;;;5018165;28;20042;-66
2022/01/03 00:50:24;;;;;;;19.92;3.50;;;9.60;99.90;;;;;;5038658;28;20055;-67
2022/01/03 00:52:51;;;;;;;19.95;3.08;;;9.40;99.90;;;;;;5054841;28;20041;-66
2022/01/03 00:55:17;;;;;;;13.77;2.67;;;9.50;99.90;;;;;;5054421;28;20033;-66
2022/01/03 00:58:05;;;;;;;19.23;3.65;;;9.60;99.90;;;;;;5053798;28;20121;-66
2022/01/03 01:00:32;;;;;;;13.10;2.72;;;9.60;99.90;;;;;;5053333;28;20127;-67
2022/01/03 01:03:10;;;;;;;14.25;3.65;;;9.50;99.90;;;;;;5054993;28;20460;-66
2022/01/03 01:05:39;;;;;;;21.25;3.42;;;9.50;99.90;;;;;;5047198;28;20112;-66
2022/01/03 01:08:05;;;;;;;19.63;2.97;;;9.40;99.90;;;;;;5055501;28;20045;-66
2022/01/03 01:10:37;;;;;;;13.95;2.97;;;9.50;99.90;;;;;;5054110;28;20041;-66
2022/01/03 01:13:06;;;;;;;14.93;3.33;;;9.40;99.90;;;;;;5053805;28;20041;-66
2022/01/03 01:15:32;;;;;;;15.20;2.55;;;9.50;99.90;;;;;;5054055;28;20037;-66
2022/01/03 01:17:59;;;;;;;18.13;3.53;;;9.50;99.90;;;;;;5055934;28;20152;-65
2022/01/03 01:20:25;;;;;;;15.35;4.75;;;9.50;99.90;;;;;;5038198;28;20045;-66
2022/01/03 01:22:51;;;;;;;18.02;2.72;;;9.40;99.90;;;;;;5037224;28;20049;-65
2022/01/03 01:27:48;;;;;;;17.10;4.07;;;9.50;99.90;;;;;;5054069;28;20099;-66
2022/01/03 01:30:19;;;;;;;14.63;2.95;;;9.70;99.90;;;;;;5053788;28;20124;-65
2022/01/03 01:32:51;;;;;;;19.20;3.60;;;9.60;99.90;;;;;;5053810;28;20490;-66
2022/01/03 01:35:19;;;;;;;18.45;3.83;;;9.70;99.90;;;;;;5054245;28;20044;-66
2022/01/03 01:37:48;;;;;;;15.43;3.58;;;9.70;99.90;;;;;;5054646;28;20049;-65
2022/01/03 01:40:14;;;;;;;29.15;3.60;;;;;;;;;;5054231;28;20056;-66
2022/01/03 01:42:45;;;;;;;16.92;3.45;;;9.60;99.90;;;;;;5053838;28;20056;-66
2022/01/03 01:45:11;;;;;;;15.85;3.70;;;9.60;99.90;;;;;;5054473;28;20037;-65
2022/01/03 01:47:40;;;;;;;21.10;4.35;;;9.60;99.90;;;;;;5054348;28;20060;-66
2022/01/03 01:50:09;;;;;;;12.55;3.33;;;9.50;99.90;;;;;;5053133;28;20403;-65
2022/01/03 01:52:37;;;;;;;24.17;4.50;;;9.60;99.90;;;;;;5038145;28;20051;-66
2022/01/03 01:55:12;;;;;;;19.90;3.33;;;9.50;99.90;;;;;;5054673;28;20043;-66
2022/01/03 01:57:46;;;;;;;18.02;3.70;;;9.60;99.90;;;;;;5037689;28;20091;-66
2022/01/03 02:00:16;;;;;;;22.15;4.18;;;9.70;99.90;;;;;;5054824;28;20103;-66
2022/01/03 02:02:52;;;;;;;16.15;3.75;;;9.70;99.90;;;;;;5036970;28;20049;-65
2022/01/03 02:05:32;;;;;;;22.42;4.55;;;9.50;99.90;;;;;;5052746;28;20071;-66
2022/01/03 02:08:01;;;;;;;16.13;3.60;;;9.50;99.90;;;;;;5020242;28;20045;-65
2022/01/03 02:10:42;;;;;;;19.15;3.42;;;9.50;99.90;;;;;;5036891;28;20103;-66
2022/01/03 02:13:08;;;;;;;12.85;3.10;;;9.50;99.90;;;;;;5053673;28;20513;-65
2022/01/03 02:15:36;;;;;;;25.90;3.97;;;9.50;99.90;;;;;;5054082;28;20041;-66
2022/01/03 02:18:02;;;;;;;19.17;3.65;;;9.40;99.90;;;;;;5055299;28;20041;-66
2022/01/03 02:20:29;;;;;;;23.88;4.63;;;9.20;99.90;;;;;;5054367;28;20033;-65
2022/01/03 02:22:55;;;;;;;18.73;3.60;;;9.40;99.90;;;;;;5055830;28;20049;-66
2022/01/03 02:25:23;;;;;;;17.70;3.88;;;9.40;99.90;;;;;;5058740;28;20462;-66
2022/01/03 02:27:51;;;;;;;16.65;3.20;;;9.30;99.90;;;;;;5058061;28;20041;-66
2022/01/03 02:30:23;;;;;;;24.23;3.70;;;9.10;99.90;;;;;;5040651;28;20068;-66
2022/01/03 02:32:50;;;;;;;18.80;3.70;;;9.30;99.90;;;;;;5056985;28;20044;-66
2022/01/03 02:35:16;;;;;;;25.00;4.07;;;9.30;99.90;;;;;;5058049;28;20525;-66
2022/01/03 02:37:45;;;;;;;17.38;4.60;;;9.40;99.90;;;;;;5057969;28;20497;-66
2022/01/03 02:40:11;;;;;;;21.23;4.38;;;9.20;99.90;;;;;;5058130;28;20044;-66
2022/01/03 02:42:38;;;;;;;25.52;5.03;;;9.40;99.90;;;;;;5040688;28;20049;-66
2022/01/03 02:45:13;;;;;;;13.98;3.25;;;9.30;99.90;;;;;;5057992;28;20041;-66
2022/01/03 02:47:40;;;;;;;21.73;3.97;;;9.30;99.90;;;;;;5040290;28;20078;-66
2022/01/03 02:50:08;;;;;;;19.10;3.83;;;9.20;99.90;;;;;;5058398;28;20529;-66
2022/01/03 02:52:34;;;;;;;22.85;5.05;;;9.40;99.90;;;;;;5057212;28;20041;-66
2022/01/03 02:55:02;;;;;;;23.08;4.25;;;9.40;99.90;;;;;;5056630;28;20071;-66
2022/01/03 02:57:42;;;;;;;17.42;3.40;;;9.30;99.90;;;;;;5055631;28;20483;-66
2022/01/03 03:00:12;;;;;;;19.95;4.47;;;9.20;99.90;;;;;;5056349;28;20045;-66
2022/01/03 03:02:37;;;;;;;21.52;3.85;;;9.40;99.90;;;;;;5040214;28;20120;-66
2022/01/03 03:05:06;;;;;;;20.75;3.65;;;9.20;99.90;;;;;;5056951;28;20068;-66
2022/01/03 03:07:31;;;;;;;24.58;3.85;;;9.30;99.90;;;;;;5056907;28;20040;-66
2022/01/03 03:09:58;;;;;;;20.02;5.35;;;9.20;99.90;;;;;;5057884;28;20106;-66
2022/01/03 03:12:25;;;;;;;18.67;4.70;;;9.20;99.90;;;;;;5056751;28;20065;-66
2022/01/03 03:14:52;;;;;;;26.38;4.00;;;9.20;99.90;;;;;;5057679;28;20033;-66
2022/01/03 03:17:18;;;;;;;18.35;3.80;;;9.30;99.90;;;;;;5056153;28;20044;-66
2022/01/03 03:20:00;;;;;;;23.73;4.30;;;9.20;99.90;;;;;;5057708;28;20398;-66
2022/01/03 03:22:28;;;;;;;21.23;3.83;;;9.30;99.90;;;;;;5039853;28;20048;-66
2022/01/03 03:25:09;;;;;;;15.80;3.17;;;9.40;99.90;;;;;;5056405;28;20159;-66
2022/01/03 03:27:43;;;;;;;17.10;3.90;;;9.40;99.90;;;;;;5040050;28;20124;-66
2022/01/03 03:30:10;;;;;;;23.58;4.70;;;9.20;99.90;;;;;;5040164;28;20037;-66
2022/01/03 03:32:36;;;;;;;20.45;4.65;;;;;;;;;;5039665;28;20103;-66
2022/01/03 03:35:02;;;;;;;22.67;3.92;;;9.30;99.90;;;;;;5038962;28;20048;-66
2022/01/03 03:37:28;;;;;;;21.40;4.90;;;;;;;;;;5055868;28;20044;-66
2022/01/03 03:39:54;;;;;;;23.17;4.78;;;9.40;99.90;;;;;;5056188;28;20045;-66
2022/01/03 03:42:19;;;;;;;23.67;4.03;;;9.40;99.90;;;;;;5057771;28;20040;-66
2022/01/03 03:44:45;;;;;;;19.40;4.03;;;9.20;99.90;;;;;;5057075;28;20059;-66
2022/01/03 03:47:11;;;;;;;24.80;4.30;;;8.20;99.90;;;;;;5057020;28;20078;-66
2022/01/03 03:49:37;;;;;;;21.77;3.50;;;9.40;99.90;;;;;;5039615;28;20118;-66
2022/01/03 03:52:03;;;;;;;28.02;5.00;;;9.20;99.90;;;;;;5056879;28;20088;-66
2022/01/03 03:54:29;;;;;;;17.88;4.95;;;9.40;99.90;;;;;;5055365;28;20041;-66
2022/01/03 03:56:57;;;;;;;27.58;4.25;;;9.40;99.90;;;;;;5055286;28;20091;-66
2022/01/03 03:59:22;;;;;;;25.15;4.38;;;9.40;99.90;;;;;;5039259;28;20037;-66
2022/01/03 04:01:48;;;;;;;21.88;3.67;;;9.50;99.90;;;;;;5056977;28;20167;-66
2022/01/03 04:04:14;;;;;;;25.25;4.63;;;;;;;;;;5056350;28;20048;-66
2022/01/03 04:06:40;;;;;;;24.75;4.47;;;;;;;;;;5056816;28;20132;-66
2022/01/03 04:09:06;;;;;;;29.02;4.60;;;9.40;99.90;;;;;;5055595;28;20068;-66
2022/01/03 04:11:31;;;;;;;23.23;4.82;;;9.20;99.90;;;;;;5055542;28;20071;-66
2022/01/03 04:13:57;;;;;;;26.02;4.97;;;9.30;99.90;;;;;;5055211;28;20040;-66
2022/01/03 04:16:23;;;;;;;16.02;3.88;;;9.30;99.90;;;;;;5056441;28;20044;-66
2022/01/03 04:18:49;;;;;;;20.23;3.80;;;9.20;99.90;;;;;;5055149;28;20037;-66
2022/01/03 04:21:14;;;;;;;30.05;5.85;;;9.30;99.90;;;;;;5056604;28;20036;-66
2022/01/03 04:23:40;;;;;;;22.90;3.95;;;;;;;;;;5056963;28;20490;-66
2022/01/03 04:26:06;;;;;;;20.30;4.10;;;9.30;99.90;;;;;;5055756;28;20491;-66
2022/01/03 04:28:31;;;;;;;31.05;5.13;;;9.30;99.90;;;;;;5039583;28;20127;-66
2022/01/03 04:30:57;;;;;;;24.83;4.88;;;9.30;99.90;;;;;;5056513;28;20043;-66
2022/01/03 04:33:23;;;;;;;22.70;5.13;;;9.10;99.90;;;;;;5056042;28;20029;-66
2022/01/03 04:35:48;;;;;;;34.45;5.50;;;9.50;99.90;;;;;;5056244;28;20052;-66
2022/01/03 04:38:14;;;;;;;27.08;4.05;;;9.40;99.90;;;;;;5056260;28;20483;-66
2022/01/03 04:40:40;;;;;;;22.42;4.53;;;9.50;99.90;;;;;;5056460;28;20049;-66
2022/01/03 04:43:06;;;;;;;27.02;4.80;;;9.50;99.90;;;;;;5054805;28;20049;-66
2022/01/03 04:45:32;;;;;;;25.23;4.45;;;9.30;99.90;;;;;;5054354;28;20513;-67
2022/01/03 04:47:57;;;;;;;23.50;5.40;;;9.60;99.90;;;;;;5054717;28;20056;-66
2022/01/03 04:50:23;;;;;;;29.15;4.47;;;9.40;99.90;;;;;;5051539;28;20081;-66
2022/01/03 04:52:49;;;;;;;26.33;4.72;;;9.30;99.90;;;;;;5034133;28;20052;-66
2022/01/03 04:55:14;;;;;;;25.75;5.25;;;10.80;99.90;;;;;;5035705;28;20091;-66
2022/01/03 04:57:40;;;;;;;30.50;5.03;;;9.30;99.90;;;;;;5036007;28;20124;-66
2022/01/03 05:00:08;;;;;;;36.08;5.90;;;9.10;99.90;;;;;;5034978;28;20135;-68
2022/01/03 05:02:36;;;;;;;27.05;4.75;;;9.10;99.90;;;;;;5017189;28;20052;-66
2022/01/03 05:05:02;;;;;;;25.08;4.47;;;9.30;99.90;;;;;;5034902;28;20446;-66
2022/01/03 05:07:28;;;;;;;25.17;4.20;;;9.30;99.90;;;;;;5034247;28;20049;-66
2022/01/03 05:09:53;;;;;;;33.67;5.20;;;9.40;99.90;;;;;;5035725;28;20056;-66
2022/01/03 05:12:19;;;;;;;34.42;5.20;;;9.30;99.90;;;;;;5034441;28;20522;-66
2022/01/03 05:14:44;;;;;;;28.00;4.78;;;9.20;99.90;;;;;;5018065;28;20049;-66
2022/01/03 05:17:10;;;;;;;28.77;6.50;;;9.20;99.90;;;;;;5033440;28;20037;-66
2022/01/03 05:19:36;;;;;;;26.35;5.18;;;9.10;99.90;;;;;;5035397;28;20450;-66
2022/01/03 05:22:03;;;;;;;27.25;4.82;;;9.20;99.90;;;;;;5034500;28;20088;-66
2022/01/03 05:24:29;;;;;;;22.13;4.93;;;9.00;99.90;;;;;;5034620;28;20111;-66
2022/01/03 05:26:56;;;;;;;28.45;4.95;;;9.10;99.90;;;;;;5034724;28;20494;-66
2022/01/03 05:29:22;;;;;;;23.40;4.45;;;;;;;;;;5037368;28;20510;-66
2022/01/03 05:31:48;;;;;;;28.95;4.38;;;9.10;99.90;;;;;;5054693;28;20120;-66
2022/01/03 05:34:13;;;;;;;28.98;5.82;;;8.90;99.90;;;;;;5052228;28;20032;-66
2022/01/03 05:36:39;;;;;;;23.75;4.50;;;9.10;99.90;;;;;;5043427;28;20075;-66
2022/01/03 05:39:05;;;;;;;29.02;4.28;;;;;;;;;;5045543;28;20041;-66
2022/01/03 05:41:32;;;;;;;32.72;5.22;;;9.20;99.90;;;;;;5042137;28;20030;-66
2022/01/03 05:43:58;;;;;;;26.00;5.15;;;9.20;99.90;;;;;;5052203;28;20059;-66
2022/01/03 05:46:24;;;;;;;20.33;5.38;;;9.30;99.90;;;;;;5041242;28;20099;-66
2022/01/03 05:48:50;;;;;;;27.50;5.82;;;9.10;99.90;;;;;;5039888;28;20037;-66
2022/01/03 05:51:16;;;;;;;28.52;5.47;;;9.20;99.90;;;;;;5042125;28;20079;-66
2022/01/03 05:53:41;;;;;;;30.92;5.18;;;9.10;99.90;;;;;;5052628;28;20461;-66
2022/01/03 05:56:07;;;;;;;29.02;4.78;;;9.20;99.90;;;;;;5051707;28;20036;-66
2022/01/03 05:58:33;;;;;;;23.02;4.20;;;9.20;99.90;;;;;;5052724;28;20039;-66
2022/01/03 06:01:00;;;;;;;36.13;5.38;;;9.20;99.90;;;;;;5051930;28;20398;-66
2022/01/03 06:03:27;;;;;;;24.50;5.00;;;9.10;99.90;;;;;;5051758;28;20033;-66
2022/01/03 06:08:22;;;;;;;28.40;4.80;;;;;;;;;;5050994;28;20390;-66
2022/01/03 06:10:48;;;;;;;27.80;5.35;;;8.90;99.90;;;;;;5051678;28;20057;-66
2022/01/03 06:13:15;;;;;;;37.47;5.80;;;9.00;99.90;;;;;;5052875;28;20047;-66
2022/01/03 06:15:41;;;;;;;28.63;4.55;;;9.10;99.90;;;;;;5052466;28;20383;-66
2022/01/03 06:18:10;;;;;;;32.90;4.55;;;9.00;99.90;;;;;;5052524;28;20489;-66
2022/01/03 06:20:38;;;;;;;29.13;5.53;;;8.90;99.90;;;;;;5049529;28;20098;-66
2022/01/03 06:23:04;;;;;;;30.02;4.80;;;;;;;;;;5049754;28;20054;-65
2022/01/03 06:25:30;;;;;;;32.90;5.45;;;;;;;;;;5050667;28;20041;-66
2022/01/03 06:27:56;;;;;;;32.55;5.07;;;8.90;99.90;;;;;;5044547;28;20053;-65
2022/01/03 06:30:22;;;;;;;39.90;5.45;;;8.90;99.90;;;;;;5037327;28;20056;-66
2022/01/03 06:32:48;;;;;;;24.58;4.20;;;;;;;;;;5025940;28;20037;-67
2022/01/03 06:35:14;;;;;;;27.20;5.32;;;;;;;;;;5036112;28;20033;-69
2022/01/03 06:37:40;;;;;;;35.15;5.72;;;;;;;;;;5031672;28;20076;-66
2022/01/03 06:40:06;;;;;;;28.67;5.38;;;9.00;99.90;;;;;;5025511;28;20056;-66
2022/01/03 06:42:33;;;;;;;30.48;5.57;;;8.90;99.90;;;;;;5029292;28;20091;-65
2022/01/03 06:44:59;;;;;;;27.67;5.30;;;8.90;99.90;;;;;;5030912;28;20067;-66
2022/01/03 06:47:24;;;;;;;31.67;5.88;;;8.90;99.90;;;;;;5041376;28;20418;-65
2022/01/03 06:49:50;;;;;;;38.33;5.88;;;8.90;99.90;;;;;;5046560;28;20140;-64
2022/01/03 06:52:16;;;;;;;32.72;5.07;;;8.90;99.90;;;;;;5036202;28;20038;-66
2022/01/03 06:54:42;;;;;;;29.95;5.25;;;9.00;99.90;;;;;;5048736;28;20071;-65
2022/01/03 06:57:08;;;;;;;30.20;5.30;;;8.90;99.90;;;;;;5048163;28;20497;-65
2022/01/03 06:59:34;;;;;;;34.13;4.82;;;;;;;;;;5046484;28;20052;-66
2022/01/03 07:02:00;;;;;;;28.50;4.55;;;8.80;99.90;;;;;;5042521;28;20123;-66
2022/01/03 07:04:26;;;;;;;29.58;5.03;;;8.80;99.90;;;;;;5044358;28;20066;-66
2022/01/03 07:06:52;;;;;;;49.08;6.90;;;;;;;;;;5049002;28;20134;-66
2022/01/03 07:09:18;;;;;;;28.17;5.18;;;;;;;;;;5049651;28;20049;-67
2022/01/03 07:11:44;;;;;;;39.35;5.97;;;9.00;99.90;;;;;;5053237;28;20037;-67
2022/01/03 07:19:34;;;;;;;24.13;4.63;;;;;;;;;;5042429;28;20056;-67
2022/01/03 07:22:02;;;;;;;29.33;4.72;;;9.30;99.90;;;;;;5051494;28;20052;-65
2022/01/03 07:24:29;;;;;;;34.55;6.22;;;9.10;99.90;;;;;;5050139;28;20490;-65
2022/01/03 07:26:55;;;;;;;25.40;5.13;;;;;;;;;;5048944;28;20041;-66
2022/01/03 07:29:21;;;;;;;35.97;4.68;;;9.20;99.90;;;;;;5045777;28;20047;-65
2022/01/03 07:31:47;;;;;;;29.75;5.88;;;;;;;;;;5044199;28;20044;-66
2022/01/03 07:34:12;;;;;;;30.40;6.18;;;9.20;99.90;;;;;;5041469;28;20041;-66
2022/01/03 07:36:38;;;;;;;28.55;4.93;;;;;;;;;;5045233;28;20043;-66
2022/01/03 07:39:04;;;;;;;30.83;4.97;;;9.40;99.90;;;;;;5047553;28;20406;-66
2022/01/03 07:41:31;;;;;;;29.13;5.53;;;9.40;99.90;;;;;;5049651;28;20048;-66
2022/01/03 07:43:57;;;;;;;31.02;6.45;;;9.40;99.90;;;;;;5049671;28;20041;-65
2022/01/03 07:46:22;;;;;;;32.33;4.70;;;9.40;99.90;;;;;;5048621;28;20044;-65
2022/01/03 07:48:48;;;;;;;36.28;5.22;;;9.40;99.90;;;;;;5048422;28;20068;-65
2022/01/03 07:51:14;;;;;;;41.85;6.72;;;9.60;99.90;;;;;;5049459;28;20068;-65
2022/01/03 07:53:42;;;;;;;30.83;5.25;;;;;;;;;;5050363;28;20051;-68
2022/01/03 07:56:09;;;;;;;35.88;5.20;;;;;;;;;;5046721;28;20490;-65
2022/01/03 07:58:35;;;;;;;27.83;4.85;;;9.50;99.90;;;;;;5048545;28;20041;-65
2022/01/03 08:01:01;;;;;;;25.20;5.13;;;9.50;99.90;;;;;;5031757;28;20056;-65
2022/01/03 08:03:27;;;;;;;33.50;5.43;;;;;;;;;;5050005;28;20423;-65
2022/01/03 08:05:53;;;;;;;29.55;4.80;;;;;;;;;;5049077;28;20120;-65
2022/01/03 08:08:19;;;;;;;29.92;4.75;;;;;;;;;;5046923;28;20045;-65
2022/01/03 08:10:46;;;;;;;30.85;5.53;;;9.60;99.90;;;;;;5050138;28;20069;-66
2022/01/03 08:13:12;;;;;;;28.58;5.05;;;9.60;99.90;;;;;;5050165;28;20033;-66
2022/01/03 08:15:38;;;;;;;28.25;5.40;;;9.50;99.90;;;;;;5046119;28;20037;-66
2022/01/03 08:18:05;;;;;;;30.73;4.53;;;9.40;99.90;;;;;;5042801;28;20056;-65
2022/01/03 08:20:31;;;;;;;30.02;4.53;;;;;;;;;;5045544;28;20043;-67
2022/01/03 08:22:56;;;;;;;26.90;5.53;;;9.50;99.90;;;;;;5049589;28;20041;-66
2022/01/03 08:25:22;;;;;;;26.17;4.72;;;9.60;99.90;;;;;;5048729;28;20029;-66
2022/01/03 08:27:48;;;;;;;21.27;4.35;;;;;;;;;;5045021;28;20075;-66
2022/01/03 08:30:14;;;;;;;27.15;4.45;;;;;;;;;;5042317;28;20099;-66
2022/01/03 08:32:40;;;;;;;27.08;4.93;;;;;;;;;;5048254;28;20111;-69
2022/01/03 08:35:06;;;;;;;23.58;4.60;;;;;;;;;;5048433;28;20045;-69
2022/01/03 08:37:32;;;;;;;30.23;5.10;;;;;;;;;;5047416;28;20049;-69
2022/01/03 08:40:03;;;;;;;25.42;5.78;;;;;;;;;;5046258;28;20083;-66
2022/01/03 08:42:29;;;;;;;24.45;4.47;;;9.60;99.90;;;;;;5048157;28;20140;-67
2022/01/03 08:44:55;;;;;;;29.05;5.47;;;;;;;;;;5047402;28;20051;-67
2022/01/03 08:47:21;;;;;;;41.95;5.18;;;;;;;;;;5046216;28;20433;-72
2022/01/03 08:49:47;;;;;;;33.03;4.75;;;;;;;;;;5046794;28;20549;-68
2022/01/03 08:52:13;;;;;;;26.13;4.25;;;;;;;;;;5046806;28;20041;-68
2022/01/03 08:54:39;;;;;;;26.88;4.65;;;;;;;;;;5046248;28;20045;-68
2022/01/03 08:57:05;;;;;;;29.35;5.32;;;9.70;99.90;;;;;;5044603;28;20615;-65
2022/01/03 08:59:31;;;;;;;26.52;5.25;;;;;;;;;;5042416;28;20040;-67
2022/01/03 09:01:57;;;;;;;25.05;4.72;;;;;;;;;;5041567;28;20076;-67
2022/01/03 09:04:22;;;;;;;25.77;5.15;;;9.80;99.90;;;;;;5039621;28;20055;-64
2022/01/03 09:06:50;;;;;;;23.10;4.75;;;;;;;;;;5039765;28;20077;-67
2022/01/03 09:09:16;;;;;;;31.45;5.68;;;;;;;;;;5043694;28;20071;-65
2022/01/03 09:11:42;;;;;;;22.55;4.60;;;;;;;;;;5040334;28;20041;-65
2022/01/03 09:14:07;;;;;;;26.75;4.10;;;9.90;99.90;;;;;;5045489;28;20115;-65
2022/01/03 09:16:33;;;;;;;22.52;4.45;;;9.90;99.90;;;;;;5044734;28;20048;-66
2022/01/03 09:18:59;;;;;;;21.70;4.30;;;;;;;;;;5045542;28;20052;-68
2022/01/03 09:21:25;;;;;;;28.80;5.75;;;10.00;99.90;;;;;;5048073;28;20043;-66
2022/01/03 09:24:04;;;;;;;30.80;5.60;;;9.90;99.90;;;;;;5038529;28;20047;-67
2022/01/03 09:29:17;;;;;;;27.58;4.57;;;9.90;99.90;;;;;;5048527;28;20049;-65
2022/01/03 09:31:43;;;;;;;22.48;4.55;;;9.90;99.90;;;;;;5044701;28;20041;-69
2022/01/03 09:34:09;;;;;;;27.92;4.55;;;9.90;99.90;;;;;;5040441;28;20064;-66
2022/01/03 09:36:35;;;;;;;29.08;5.70;;;10.00;99.90;;;;;;5046895;28;20443;-66
2022/01/03 09:39:01;;;;;;;30.75;5.72;;;;;;;;;;5046748;28;20478;-66
2022/01/03 09:41:28;;;;;;;25.60;4.80;;;10.10;99.90;;;;;;5044187;28;20037;-67
2022/01/03 09:43:59;;;;;;;28.73;4.82;;;10.00;99.90;;;;;;5047284;28;20037;-65
2022/01/03 09:46:31;;;;;;;20.23;5.07;;;10.00;99.90;;;;;;5044294;28;20041;-65
2022/01/03 09:48:57;;;;;;;22.75;4.20;;;10.10;99.90;;;;;;5042819;28;20044;-65
2022/01/03 09:51:29;;;;;;;25.58;6.22;;;10.20;99.90;;;;;;5044426;28;20059;-66
2022/01/03 09:54:00;;;;;;;29.15;5.10;;;10.10;99.90;;;;;;5044153;28;20520;-65
2022/01/03 09:56:29;;;;;;;23.52;4.95;;;10.30;99.90;;;;;;5044249;28;20048;-65
2022/01/03 09:58:55;;;;;;;27.00;4.65;;;10.30;99.90;;;;;;5044380;28;20047;-66
2022/01/03 10:01:21;;;;;;;28.27;5.15;;;;;;;;;;5044218;28;20041;-64
2022/01/03 10:03:47;;;;;;;29.15;5.00;;;;;;;;;;5028625;28;20054;-64
2022/01/03 10:06:15;;;;;;;31.38;5.72;;;11.00;99.90;;;;;;5040250;28;20044;-66
2022/01/03 10:08:42;;;;;;;29.77;5.28;;;11.20;99.90;;;;;;5039645;28;20414;-64
2022/01/03 10:11:07;;;;;;;24.42;4.38;;;11.10;99.90;;;;;;5046308;28;20618;-67
2022/01/03 10:13:33;;;;;;;34.20;4.65;;;;;;;;;;5043905;28;20111;-67
2022/01/03 10:15:59;;;;;;;29.10;4.93;;;;;;;;;;5045855;28;20116;-68
2022/01/03 10:18:26;;;;;;;28.13;4.95;;;;;;;;;;5034030;28;20117;-69
2022/01/03 10:20:53;;;;;;;35.13;4.85;;;;;;;;;;5047711;28;20045;-65
2022/01/03 10:23:19;;;;;;;28.02;5.10;;;;;;;;;;5047447;28;20530;-67
2022/01/03 10:25:46;;;;;;;28.02;4.82;;;11.00;99.90;;;;;;5047866;28;20135;-64
2022/01/03 10:28:24;;;;;;;23.92;5.10;;;10.90;99.90;;;;;;5045236;28;20114;-64
2022/01/03 10:30:50;;;;;;;29.20;4.65;;;10.70;99.90;;;;;;5042433;28;20056;-63
2022/01/03 10:33:19;;;;;;;29.25;5.30;;;10.90;99.90;;;;;;5046432;28;20041;-63
2022/01/03 10:35:53;;;;;;;24.65;4.82;;;11.00;99.90;;;;;;5044914;28;20045;-68
2022/01/03 10:38:43;;;;;;;28.92;5.13;;;10.80;99.90;;;;;;5045833;28;20516;-67
2022/01/03 10:41:17;;;;;;;24.67;4.78;;;10.80;99.90;;;;;;5047492;28;20067;-66
2022/01/03 10:43:48;;;;;;;27.63;5.68;;;10.60;99.90;;;;;;5048213;28;20187;-66
2022/01/03 10:46:33;;;;;;;27.13;4.38;;;10.80;99.90;;;;;;5051034;28;20105;-66
2022/01/03 10:49:10;;;;;;;36.33;5.60;;;10.80;99.90;;;;;;5030995;28;20040;-66
2022/01/03 10:51:37;;;;;;;25.15;4.43;;;10.90;99.90;;;;;;5043773;28;20053;-64
2022/01/03 10:54:06;;;;;;;24.77;4.65;;;11.20;99.90;;;;;;5051277;28;20086;-65
2022/01/03 10:56:32;;;;;;;19.10;4.65;;;;;;;;;;5039225;28;20398;-67
2022/01/03 10:59:22;;;;;;;24.15;5.40;;;11.30;99.90;;;;;;5049554;28;20052;-67
2022/01/03 11:01:50;;;;;;;26.92;4.53;;;11.10;99.90;;;;;;5050738;28;20086;-65
2022/01/03 11:04:49;;;;;;;21.17;5.63;;;11.10;99.90;;;;;;5048629;28;20541;-65
2022/01/03 11:10:43;;;;;;;21.63;4.35;;;11.40;99.90;;;;;;5046152;28;20076;-69
2022/01/03 11:13:12;;;;;;;26.23;4.38;;;11.30;99.90;;;;;;5030753;28;20049;-65
2022/01/03 11:15:56;;;;;;;22.25;3.75;;;11.40;99.90;;;;;;5045228;28;20037;-66
2022/01/03 11:18:31;;;;;;;24.40;5.45;;;11.40;99.90;;;;;;5049611;28;20080;-67
2022/01/03 11:21:16;;;;;;;19.55;4.15;;;11.40;99.90;;;;;;5049461;28;20077;-65
2022/01/03 11:23:44;;;;;;;22.80;5.07;;;11.50;99.90;;;;;;5047846;28;20048;-67
2022/01/03 11:26:18;;;;;;;25.88;3.90;;;11.50;99.90;;;;;;5047641;28;20045;-65
2022/01/03 11:28:45;;;;;;;22.07;3.83;;;11.60;99.90;;;;;;5046041;28;20472;-67
2022/01/03 11:31:13;;;;;;;23.17;4.00;;;11.40;99.90;;;;;;5049038;28;20381;-65
2022/01/03 11:33:40;;;;;;;18.08;3.72;;;11.60;99.90;;;;;;5046944;28;20805;-64
2022/01/03 11:36:06;;;;;;;26.95;5.35;;;11.50;99.90;;;;;;5046545;28;20041;-64
2022/01/03 11:38:35;;;;;;;23.77;4.28;;;11.30;99.90;;;;;;5036114;28;20041;-64
2022/01/03 11:41:04;;;;;;;23.98;4.13;;;11.40;99.90;;;;;;5044024;28;20044;-68
2022/01/03 11:43:34;;;;;;;25.42;4.78;;;11.30;99.90;;;;;;5045376;28;20122;-64
2022/01/03 11:46:00;;;;;;;21.48;4.47;;;11.40;99.90;;;;;;5039047;28;20047;-66
2022/01/03 11:48:26;;;;;;;27.23;5.93;;;11.40;99.90;;;;;;5041196;28;20040;-63
2022/01/03 11:51:02;;;;;;;21.83;5.55;;;11.60;99.90;;;;;;5036141;28;20041;-66
2022/01/03 11:53:30;;;;;;;20.15;4.30;;;11.40;99.90;;;;;;5041604;28;21297;-63
2022/01/03 11:56:02;;;;;;;28.65;4.97;;;11.50;99.90;;;;;;5041582;28;20049;-65
2022/01/03 12:04:19;;;;;;;27.95;5.25;;;11.60;99.90;;;;;;5039344;28;20091;-64
2022/01/03 12:06:46;;;;;;;25.58;5.47;;;11.30;99.90;;;;;;5028087;28;20035;-65
2022/01/03 12:09:13;;;;;;;24.77;4.45;;;11.60;99.90;;;;;;5039903;28;20057;-70
2022/01/03 12:11:53;;;;;;;19.35;4.90;;;11.60;99.90;;;;;;5024814;28;20039;-65
2022/01/03 12:14:24;;;;;;;21.65;3.78;;;11.50;99.90;;;;;;5041793;28;20358;-70
2022/01/03 12:16:53;;;;;;;26.45;6.13;;;11.50;99.90;;;;;;5042964;28;20095;-66
2022/01/03 12:19:39;;;;;;;20.92;4.85;;;11.70;99.90;;;;;;5046799;28;20048;-67
2022/01/03 12:22:21;;;;;;;27.10;5.10;;;11.70;99.90;;;;;;5041266;28;20052;-67
2022/01/03 12:24:47;;;;;;;22.60;4.30;;;;;;;;;;5046840;28;20045;-69
2022/01/03 12:27:13;;;;;;;20.17;4.07;;;11.70;99.90;;;;;;5048685;28;20398;-67
2022/01/03 12:29:53;;;;;;;25.85;4.45;;;11.60;99.90;;;;;;5044070;28;20035;-69
2022/01/03 12:32:27;;;;;;;30.30;5.55;;;11.50;99.90;;;;;;5034949;28;20087;-68
2022/01/03 12:35:16;;;;;;;18.48;4.13;;;11.50;99.90;;;;;;5048218;28;20201;-68
2022/01/03 12:37:48;;;;;;;21.38;4.82;;;11.40;99.90;;;;;;5050328;28;20045;-68
2022/01/03 12:40:21;;;;;;;22.17;4.43;;;11.50;99.90;;;;;;5048917;28;20090;-69
2022/01/03 12:42:53;;;;;;;22.65;5.22;;;11.50;99.90;;;;;;5049958;28;20348;-66
2022/01/03 12:45:34;;;;;;;21.63;4.75;;;11.40;99.90;;;;;;5050534;28;20102;-68
2022/01/03 12:50:53;;;;;;;28.90;5.30;;;11.30;99.90;;;;;;5049438;28;20049;-67
2022/01/03 12:53:28;;;;;;;22.30;4.32;;;11.50;99.90;;;;;;5044535;28;20041;-67
2022/01/03 12:56:02;;;;;;;29.65;5.70;;;11.40;99.90;;;;;;5046753;28;20061;-66
2022/01/03 12:58:28;;;;;;;23.95;3.97;;;11.60;99.90;;;;;;5046829;28;20029;-66
2022/01/03 13:01:03;;;;;;;32.25;5.32;;;11.90;99.90;;;;;;5049455;28;20127;-68
2022/01/03 13:03:43;;;;;;;34.55;4.80;;;11.90;99.90;;;;;;5049165;28;20084;-68
2022/01/03 13:06:13;;;;;;;34.08;5.93;;;;;;;;;;5048482;28;20059;-69
2022/01/03 13:08:51;;;;;;;29.90;5.70;;;11.80;99.90;;;;;;5051073;28;20040;-67
2022/01/03 13:11:32;;;;;;;26.50;5.53;;;11.70;99.90;;;;;;5047890;28;20379;-66
2022/01/03 13:14:02;;;;;;;26.42;5.88;;;11.60;99.90;;;;;;5038407;28;20047;-67
2022/01/03 13:16:49;;;;;;;25.13;6.15;;;11.50;99.90;;;;;;5038255;28;20068;-68
2022/01/03 13:19:17;;;;;;;20.95;4.07;;;11.50;99.90;;;;;;5047522;28;20035;-68
2022/01/03 13:21:45;;;;;;;22.88;5.03;;;11.50;99.90;;;;;;5050310;28;20037;-67
2022/01/03 13:24:36;;;;;;;25.40;5.30;;;11.20;99.90;;;;;;5046642;28;20127;-67
2022/01/03 13:27:31;;;;;;;31.88;7.25;;;11.30;99.90;;;;;;5049453;28;20055;-67
2022/01/03 13:29:58;;;;;;;24.20;4.90;;;11.20;99.90;;;;;;5043297;28;20063;-68
2022/01/03 13:32:26;;;;;;;22.02;4.70;;;11.10;99.90;;;;;;5048763;28;20037;-67